createdAt,value
2022-12-01T00:01:24.100Z,101573.53
2022-12-01T00:03:52.219Z,101566.94
2022-12-01T00:06:21.448Z,101565.34
2022-12-01T00:09:09.395Z,101567.41
2022-12-01T00:11:38.001Z,101569.47
2022-12-01T00:14:06.215Z,101566.63
2022-12-01T00:16:34.248Z,101565.94
2022-12-01T00:19:01.967Z,101567.69
2022-12-01T00:21:29.380Z,101557.47
2022-12-01T00:23:58.110Z,101567.06
2022-12-01T00:26:27.546Z,101561.22
2022-12-01T00:28:57.511Z,101556.72
2022-12-01T00:31:25.590Z,101560.47
2022-12-01T00:33:53.046Z,101559.63
2022-12-01T00:36:21.757Z,101564.91
2022-12-01T00:38:52.519Z,101579.06
2022-12-01T00:41:20.902Z,101571.88
2022-12-01T00:43:48.578Z,101577.56
2022-12-01T00:46:16.792Z,101579.03
2022-12-01T00:48:44.254Z,101576.09
2022-12-01T00:51:11.903Z,101579.50
2022-12-01T00:53:39.135Z,101571.72
2022-12-01T00:56:06.782Z,101582.19
2022-12-01T00:58:34.432Z,101573.53
2022-12-01T01:01:02.280Z,101580.63
2022-12-01T01:03:30.612Z,101577.06
2022-12-01T01:06:05.406Z,101576.59
2022-12-01T01:08:32.909Z,101587.44
2022-12-01T01:11:01.715Z,101587.31
2022-12-01T01:13:29.802Z,101586.84
2022-12-01T01:15:59.641Z,101596.00
2022-12-01T01:18:27.195Z,101594.31
2022-12-01T01:21:04.385Z,101594.69
2022-12-01T01:23:32.187Z,101598.22
2022-12-01T01:26:20.458Z,101600.16
2022-12-01T01:28:48.963Z,101594.44
2022-12-01T01:31:21.876Z,101586.59
2022-12-01T01:33:50.526Z,101592.34
2022-12-01T01:36:18.982Z,101589.31
2022-12-01T01:38:47.562Z,101586.00
2022-12-01T01:41:14.997Z,101597.47
2022-12-01T01:43:59.731Z,101600.28
2022-12-01T01:46:33.305Z,101591.50
2022-12-01T01:49:04.319Z,101596.25
2022-12-01T01:51:43.319Z,101598.34
2022-12-01T01:54:23.903Z,101601.13
2022-12-01T01:56:53.035Z,101597.63
2022-12-01T01:59:24.903Z,101597.22
2022-12-01T02:02:09.923Z,101593.81
2022-12-01T02:04:51.285Z,101597.47
2022-12-01T02:07:19.577Z,101603.59
2022-12-01T02:09:47.237Z,101602.00
2022-12-01T02:12:49.652Z,101595.75
2022-12-01T02:15:43.539Z,101594.56
2022-12-01T02:18:26.189Z,101589.28
2022-12-01T02:21:19.628Z,101586.34
2022-12-01T02:24:05.690Z,101591.75
2022-12-01T02:26:51.987Z,101590.28
2022-12-01T02:29:41.967Z,101582.69
2022-12-01T02:32:24.128Z,101593.81
2022-12-01T02:35:08.890Z,101586.63
2022-12-01T02:38:09.743Z,101596.47
2022-12-01T02:40:49.850Z,101583.81
2022-12-01T02:43:37.623Z,101587.34
2022-12-01T02:46:15.162Z,101586.38
2022-12-01T02:48:46.944Z,101583.69
2022-12-01T02:51:19.469Z,101578.81
2022-12-01T02:53:47.676Z,101585.63
2022-12-01T02:56:16.093Z,101579.91
2022-12-01T02:58:43.787Z,101584.19
2022-12-01T03:01:18.279Z,101582.13
2022-12-01T03:04:03.119Z,101576.13
2022-12-01T03:07:03.902Z,101579.53
2022-12-01T03:09:33.870Z,101578.31
2022-12-01T03:12:21.105Z,101576.75
2022-12-01T03:15:08.073Z,101576.59
2022-12-01T03:17:45.702Z,101571.00
2022-12-01T03:20:20.968Z,101577.69
2022-12-01T03:22:56.687Z,101574.25
2022-12-01T03:25:26.423Z,101567.28
2022-12-01T03:28:20.252Z,101575.13
2022-12-01T03:30:46.714Z,101569.44
2022-12-01T03:33:23.087Z,101577.00
2022-12-01T03:36:03.856Z,101571.56
2022-12-01T03:38:36.085Z,101571.19
2022-12-01T03:41:12.273Z,101571.13
2022-12-01T03:43:44.185Z,101567.78
2022-12-01T03:46:19.732Z,101574.06
2022-12-01T03:48:47.122Z,101575.75
2022-12-01T03:51:47.859Z,101576.38
2022-12-01T03:54:22.665Z,101579.28
2022-12-01T03:56:55.720Z,101576.00
2022-12-01T03:59:25.354Z,101581.38
2022-12-01T04:01:53.148Z,101573.88
2022-12-01T04:04:20.851Z,101566.75
2022-12-01T04:06:50.524Z,101573.31
2022-12-01T04:09:17.870Z,101572.25
2022-12-01T04:12:04.566Z,101565.31
2022-12-01T04:14:32.052Z,101566.78
2022-12-01T04:16:59.764Z,101571.06
2022-12-01T04:19:27.107Z,101574.13
2022-12-01T04:21:54.789Z,101577.41
2022-12-01T04:24:22.039Z,101576.94
2022-12-01T04:26:49.338Z,101580.97
2022-12-01T04:29:16.710Z,101586.47
2022-12-01T04:31:43.984Z,101584.03
2022-12-01T04:34:11.435Z,101574.53
2022-12-01T04:36:38.760Z,101572.13
2022-12-01T04:39:06.029Z,101571.31
2022-12-01T04:41:33.811Z,101572.47
2022-12-01T04:44:01.178Z,101574.19
2022-12-01T04:46:28.504Z,101579.56
2022-12-01T04:48:55.786Z,101580.16
2022-12-01T04:51:23.176Z,101573.75
2022-12-01T04:53:51.179Z,101576.22
2022-12-01T04:56:19.065Z,101564.22
2022-12-01T04:58:46.761Z,101570.84
2022-12-01T05:01:16.686Z,101577.44
2022-12-01T05:03:50.827Z,101572.31
2022-12-01T05:06:22.318Z,101577.31
2022-12-01T05:08:50.903Z,101577.44
2022-12-01T05:11:18.919Z,101577.31
2022-12-01T05:13:47.884Z,101580.50
2022-12-01T05:16:21.328Z,101587.25
2022-12-01T05:19:16.096Z,101573.72
2022-12-01T05:21:45.546Z,101571.50
2022-12-01T05:24:15.582Z,101574.69
2022-12-01T05:26:44.171Z,101580.13
2022-12-01T05:29:12.718Z,101581.59
2022-12-01T05:31:41.040Z,101592.44
2022-12-01T05:34:09.002Z,101590.19
2022-12-01T05:36:36.847Z,101595.63
2022-12-01T05:39:05.063Z,101600.59
2022-12-01T05:41:32.350Z,101593.06
2022-12-01T05:43:59.727Z,101599.16
2022-12-01T05:46:27.243Z,101599.63
2022-12-01T05:48:54.628Z,101600.50
2022-12-01T05:51:22.374Z,101599.66
2022-12-01T05:53:49.760Z,101591.47
2022-12-01T05:56:17.070Z,101591.75
2022-12-01T05:58:44.334Z,101582.94
2022-12-01T06:01:11.605Z,101591.22
2022-12-01T06:03:38.826Z,101584.53
2022-12-01T06:06:06.127Z,101587.94
2022-12-01T06:08:33.966Z,101594.41
2022-12-01T06:11:01.381Z,101586.78
2022-12-01T06:13:29.044Z,101595.19
2022-12-01T06:16:02.483Z,101591.34
2022-12-01T06:18:35.781Z,101589.03
2022-12-01T06:21:05.795Z,101584.94
2022-12-01T06:23:33.879Z,101589.44
2022-12-01T06:26:01.182Z,101595.69
2022-12-01T06:28:28.394Z,101598.72
2022-12-01T06:31:01.305Z,101604.59
2022-12-01T06:33:31.823Z,101593.63
2022-12-01T06:36:04.628Z,101602.94
2022-12-01T06:38:34.720Z,101605.13
2022-12-01T06:41:03.548Z,101610.38
2022-12-01T06:43:30.962Z,101608.41
2022-12-01T06:46:02.007Z,101608.16
2022-12-01T06:48:30.631Z,101616.13
2022-12-01T06:50:59.346Z,101616.03
2022-12-01T06:53:28.395Z,101614.63
2022-12-01T06:56:03.215Z,101623.91
2022-12-01T06:58:30.984Z,101620.63
2022-12-01T07:00:59.128Z,101628.81
2022-12-01T07:03:27.567Z,101629.16
2022-12-01T07:05:59.424Z,101627.88
2022-12-01T07:08:27.201Z,101630.41
2022-12-01T07:10:59.534Z,101629.19
2022-12-01T07:13:32.808Z,101626.66
2022-12-01T07:16:05.213Z,101627.38
2022-12-01T07:18:34.070Z,101630.59
2022-12-01T07:21:03.000Z,101630.75
2022-12-01T07:23:31.205Z,101634.50
2022-12-01T07:26:10.633Z,101631.63
2022-12-01T07:28:38.443Z,101635.84
2022-12-01T07:31:13.400Z,101643.19
2022-12-01T07:33:41.549Z,101643.22
2022-12-01T07:36:10.902Z,101649.94
2022-12-01T07:38:39.084Z,101646.88
2022-12-01T07:41:14.032Z,101638.91
2022-12-01T07:43:42.188Z,101638.72
2022-12-01T07:46:20.366Z,101652.66
2022-12-01T07:48:49.472Z,101641.66
2022-12-01T07:51:17.365Z,101645.50
2022-12-01T07:53:46.295Z,101652.53
2022-12-01T07:56:14.228Z,101653.91
2022-12-01T07:58:42.173Z,101654.50
2022-12-01T08:01:14.901Z,101664.38
2022-12-01T08:03:42.510Z,101656.06
2022-12-01T08:06:11.510Z,101647.84
2022-12-01T08:08:40.984Z,101653.06
2022-12-01T08:11:14.678Z,101647.63
2022-12-01T08:13:43.494Z,101648.16
2022-12-01T08:16:13.998Z,101649.34
2022-12-01T08:18:42.532Z,101654.28
2022-12-01T08:21:12.959Z,101655.53
2022-12-01T08:23:42.127Z,101652.97
2022-12-01T08:26:13.944Z,101644.44
2022-12-01T08:28:42.002Z,101640.81
2022-12-01T08:31:13.808Z,101642.38
2022-12-01T08:33:41.146Z,101647.91
2022-12-01T08:36:09.596Z,101646.50
2022-12-01T08:38:37.233Z,101652.13
2022-12-01T08:41:07.882Z,101648.91
2022-12-01T08:46:28.997Z,101658.28
2022-12-01T08:48:57.703Z,101650.94
2022-12-01T08:51:26.230Z,101652.84
2022-12-01T08:53:57.093Z,101654.28
2022-12-01T08:56:38.544Z,101660.31
2022-12-01T08:59:06.539Z,101662.94
2022-12-01T09:01:34.833Z,101663.91
2022-12-01T09:04:08.148Z,101657.03
2022-12-01T09:06:41.683Z,101659.53
2022-12-01T09:09:11.084Z,101662.88
2022-12-01T09:11:38.867Z,101669.84
2022-12-01T09:14:06.890Z,101671.19
2022-12-01T09:16:34.328Z,101668.06
2022-12-01T09:19:02.535Z,101670.75
2022-12-01T09:21:31.728Z,101671.69
2022-12-01T09:24:00.158Z,101673.69
2022-12-01T09:26:27.864Z,101670.72
2022-12-01T09:29:01.899Z,101668.75
2022-12-01T09:31:30.298Z,101671.22
2022-12-01T09:34:02.919Z,101671.53
2022-12-01T09:36:32.443Z,101672.59
2022-12-01T09:39:00.059Z,101665.91
2022-12-01T09:41:35.409Z,101662.31
2022-12-01T09:44:36.876Z,101658.13
2022-12-01T09:47:11.009Z,101659.78
2022-12-01T09:49:56.513Z,101657.22
2022-12-01T09:52:26.976Z,101670.88
2022-12-01T09:54:55.931Z,101662.03
2022-12-01T09:57:32.654Z,101669.38
2022-12-01T10:00:04.071Z,101654.25
2022-12-01T10:02:44.059Z,101657.56
2022-12-01T10:05:23.915Z,101650.44
2022-12-01T10:08:04.471Z,101650.97
2022-12-01T10:10:40.514Z,101641.97
2022-12-01T10:13:20.606Z,101649.06
2022-12-01T10:15:54.011Z,101640.56
2022-12-01T10:18:53.716Z,101638.56
2022-12-01T10:21:39.955Z,101633.88
2022-12-01T10:24:24.691Z,101628.47
2022-12-01T10:27:29.531Z,101623.19
2022-12-01T10:30:15.544Z,101616.78
2022-12-01T10:32:53.290Z,101609.69
2022-12-01T10:35:24.683Z,101607.31
2022-12-01T10:37:57.676Z,101606.78
2022-12-01T10:40:27.021Z,101593.69
2022-12-01T10:42:55.184Z,101600.56
2022-12-01T10:45:24.011Z,101596.00
2022-12-01T10:48:10.877Z,101592.16
2022-12-01T10:50:38.567Z,101604.00
2022-12-01T10:53:05.865Z,101596.19
2022-12-01T10:55:43.425Z,101595.88
2022-12-01T10:58:17.234Z,101592.84
2022-12-01T11:01:00.524Z,101582.94
2022-12-01T11:03:34.978Z,101591.00
2022-12-01T11:06:06.418Z,101590.03
2022-12-01T11:08:40.720Z,101597.13
2022-12-01T11:11:25.131Z,101595.44
2022-12-01T11:13:53.976Z,101586.16
2022-12-01T11:16:37.934Z,101577.53
2022-12-01T11:19:29.160Z,101571.44
2022-12-01T11:21:59.581Z,101575.91
2022-12-01T11:24:40.381Z,101568.72
2022-12-01T11:27:18.812Z,101577.69
2022-12-01T11:29:51.121Z,101574.69
2022-12-01T11:32:26.307Z,101565.91
2022-12-01T11:35:03.258Z,101571.84
2022-12-01T11:37:36.852Z,101571.44
2022-12-01T11:40:24.684Z,101563.91
2022-12-01T11:42:54.855Z,101561.03
2022-12-01T11:45:28.340Z,101564.09
2022-12-01T11:48:05.115Z,101560.63
2022-12-01T11:50:36.188Z,101561.97
2022-12-01T11:53:04.642Z,101556.84
2022-12-01T11:55:32.252Z,101554.94
2022-12-01T11:58:03.975Z,101548.91
2022-12-01T12:00:50.445Z,101542.03
2022-12-01T12:03:38.044Z,101550.94
2022-12-01T12:06:40.879Z,101540.56
2022-12-01T12:09:27.042Z,101537.22
2022-12-01T12:12:10.066Z,101538.25
2022-12-01T12:14:37.285Z,101526.84
2022-12-01T12:17:19.704Z,101522.69
2022-12-01T12:20:21.878Z,101525.63
2022-12-01T12:23:07.812Z,101528.22
2022-12-01T12:25:54.695Z,101528.25
2022-12-01T12:28:31.178Z,101527.81
2022-12-01T12:31:30.978Z,101519.75
2022-12-01T12:34:07.909Z,101517.88
2022-12-01T12:37:06.266Z,101508.59
2022-12-01T12:39:41.574Z,101511.97
2022-12-01T12:42:36.928Z,101506.03
2022-12-01T12:45:17.046Z,101505.34
2022-12-01T12:48:02.759Z,101501.56
2022-12-01T12:50:35.780Z,101493.91
2022-12-01T12:53:14.417Z,101487.59
2022-12-01T12:55:47.091Z,101482.31
2022-12-01T12:58:26.723Z,101474.91
2022-12-01T13:01:06.795Z,101477.47
2022-12-01T13:03:42.514Z,101474.34
2022-12-01T13:06:41.801Z,101470.28
2022-12-01T13:09:27.199Z,101472.00
2022-12-01T13:12:05.259Z,101471.91
2022-12-01T13:15:01.179Z,101464.75
2022-12-01T13:17:39.941Z,101466.59
2022-12-01T13:20:14.334Z,101469.59
2022-12-01T13:22:42.624Z,101467.66
2022-12-01T13:25:15.285Z,101462.75
2022-12-01T13:27:44.100Z,101465.56
2022-12-01T13:30:24.359Z,101462.56
2022-12-01T13:33:06.450Z,101457.56
2022-12-01T13:35:35.913Z,101456.19
2022-12-01T13:38:27.053Z,101453.50
2022-12-01T13:41:12.009Z,101452.25
2022-12-01T13:43:51.606Z,101453.03
2022-12-01T13:46:25.896Z,101456.03
2022-12-01T13:48:56.660Z,101449.38
2022-12-01T13:51:26.131Z,101449.88
2022-12-01T13:54:05.732Z,101446.38
2022-12-01T13:56:58.608Z,101438.06
2022-12-01T14:00:00.912Z,101443.16
2022-12-01T14:02:33.462Z,101443.38
2022-12-01T14:05:34.032Z,101446.69
2022-12-01T14:08:01.774Z,101446.97
2022-12-01T14:10:39.330Z,101445.22
2022-12-01T14:13:07.162Z,101449.75
2022-12-01T14:16:20.577Z,101455.19
2022-12-01T14:18:56.748Z,101449.00
2022-12-01T14:21:53.651Z,101445.47
2022-12-01T14:24:23.338Z,101441.22
2022-12-01T14:26:52.822Z,101438.34
2022-12-01T14:29:33.488Z,101443.75
2022-12-01T14:32:00.789Z,101439.03
2022-12-01T14:34:35.810Z,101439.66
2022-12-01T14:37:18.571Z,101440.97
2022-12-01T14:40:06.979Z,101436.97
2022-12-01T14:43:00.212Z,101443.97
2022-12-01T14:45:40.451Z,101443.91
2022-12-01T14:48:26.918Z,101435.59
2022-12-01T14:51:08.078Z,101440.09
2022-12-01T14:53:40.820Z,101438.78
2022-12-01T14:56:14.080Z,101439.75
2022-12-01T14:59:00.912Z,101442.00
2022-12-01T15:01:35.103Z,101443.81
2022-12-01T15:04:05.597Z,101443.53
2022-12-01T15:06:35.499Z,101442.69
2022-12-01T15:12:03.515Z,101450.78
2022-12-01T15:14:34.915Z,101448.16
2022-12-01T15:17:05.430Z,101449.78
2022-12-01T15:19:40.959Z,101445.44
2022-12-01T15:22:16.751Z,101442.34
2022-12-01T15:24:45.847Z,101441.44
2022-12-01T15:27:31.183Z,101447.31
2022-12-01T15:30:04.236Z,101450.31
2022-12-01T15:32:37.791Z,101447.53
2022-12-01T15:35:11.880Z,101438.66
2022-12-01T15:37:45.973Z,101447.66
2022-12-01T15:43:18.098Z,101443.56
2022-12-01T15:45:55.604Z,101432.75
2022-12-01T15:48:32.748Z,101444.63
2022-12-01T15:51:25.680Z,101437.69
2022-12-01T15:53:56.479Z,101442.50
2022-12-01T15:56:26.807Z,101441.47
2022-12-01T15:59:02.401Z,101444.31
2022-12-01T16:01:31.702Z,101438.91
2022-12-01T16:04:06.014Z,101443.25
2022-12-01T16:06:36.347Z,101447.06
2022-12-01T16:09:28.149Z,101438.31
2022-12-01T16:12:05.086Z,101443.81
2022-12-01T16:14:33.889Z,101442.78
2022-12-01T16:17:02.232Z,101455.13
2022-12-01T16:19:31.815Z,101450.59
2022-12-01T16:22:11.152Z,101447.78
2022-12-01T16:24:47.709Z,101445.06
2022-12-01T16:27:29.870Z,101444.53
2022-12-01T16:29:58.446Z,101449.25
2022-12-01T16:32:40.553Z,101440.78
2022-12-01T16:35:26.456Z,101450.81
2022-12-01T16:37:54.853Z,101448.81
2022-12-01T16:40:22.383Z,101456.38
2022-12-01T16:42:50.565Z,101457.06
2022-12-01T16:45:19.643Z,101450.66
2022-12-01T16:47:48.743Z,101455.78
2022-12-01T16:50:19.366Z,101453.09
2022-12-01T16:52:46.950Z,101457.75
2022-12-01T16:55:26.452Z,101454.06
2022-12-01T16:57:55.266Z,101452.78
2022-12-01T17:00:23.748Z,101469.28
2022-12-01T17:02:52.735Z,101466.94
2022-12-01T17:05:20.227Z,101465.88
2022-12-01T17:07:48.895Z,101473.03
2022-12-01T17:10:17.627Z,101469.66
2022-12-01T17:12:44.916Z,101465.53
2022-12-01T17:15:12.388Z,101468.34
2022-12-01T17:17:39.871Z,101474.19
2022-12-01T17:20:09.108Z,101477.31
2022-12-01T17:22:36.756Z,101477.75
2022-12-01T17:25:05.648Z,101477.13
2022-12-01T17:27:33.071Z,101477.47
2022-12-01T17:30:02.441Z,101482.47
2022-12-01T17:32:29.729Z,101480.88
2022-12-01T17:34:56.906Z,101482.00
2022-12-01T17:37:24.207Z,101475.88
2022-12-01T17:39:51.885Z,101476.59
2022-12-01T17:42:19.101Z,101478.78
2022-12-01T17:44:46.331Z,101479.78
2022-12-01T17:47:13.694Z,101483.91
2022-12-01T17:49:40.901Z,101482.06
2022-12-01T17:52:08.961Z,101479.81
2022-12-01T17:54:36.254Z,101483.91
2022-12-01T17:57:03.681Z,101486.72
2022-12-01T17:59:30.989Z,101485.59
2022-12-01T18:02:00.197Z,101491.56
2022-12-01T18:04:27.541Z,101495.28
2022-12-01T18:06:54.920Z,101494.00
2022-12-01T18:09:22.664Z,101494.69
2022-12-01T18:11:50.784Z,101496.25
2022-12-01T18:14:18.145Z,101499.94
2022-12-01T18:16:46.068Z,101503.66
2022-12-01T18:19:13.582Z,101503.44
2022-12-01T18:21:41.348Z,101504.53
2022-12-01T18:24:10.207Z,101505.78
2022-12-01T18:26:39.904Z,101507.34
2022-12-01T18:29:11.907Z,101509.47
2022-12-01T18:31:41.479Z,101510.03
2022-12-01T18:34:10.544Z,101505.03
2022-12-01T18:36:40.527Z,101500.69
2022-12-01T18:39:09.448Z,101509.31
2022-12-01T18:41:37.435Z,101512.59
2022-12-01T18:44:05.089Z,101505.34
2022-12-01T18:46:33.314Z,101508.91
2022-12-01T18:49:02.679Z,101507.97
2022-12-01T18:51:33.911Z,101515.34
2022-12-01T18:54:02.706Z,101512.19
2022-12-01T18:56:30.492Z,101510.34
2022-12-01T18:59:03.362Z,101521.56
2022-12-01T19:01:40.018Z,101515.91
2022-12-01T19:04:09.547Z,101517.19
2022-12-01T19:06:38.461Z,101532.63
2022-12-01T19:09:09.160Z,101525.53
2022-12-01T19:11:38.474Z,101521.72
2022-12-01T19:14:06.917Z,101519.53
2022-12-01T19:16:34.384Z,101519.81
2022-12-01T19:19:01.796Z,101525.84
2022-12-01T19:21:29.175Z,101526.59
2022-12-01T19:23:56.518Z,101518.53
2022-12-01T19:26:25.516Z,101522.44
2022-12-01T19:28:53.236Z,101521.88
2022-12-01T19:31:23.687Z,101521.59
2022-12-01T19:33:53.215Z,101522.31
2022-12-01T19:36:23.239Z,101524.31
2022-12-01T19:38:51.418Z,101517.47
2022-12-01T19:41:25.148Z,101515.63
2022-12-01T19:43:53.529Z,101523.75
2022-12-01T19:46:24.047Z,101517.66
2022-12-01T19:48:57.337Z,101521.47
2022-12-01T19:51:26.977Z,101531.81
2022-12-01T19:53:54.601Z,101532.97
2022-12-01T19:56:22.581Z,101531.09
2022-12-01T19:58:50.702Z,101531.25
2022-12-01T20:01:19.522Z,101524.75
2022-12-01T20:03:50.302Z,101528.44
2022-12-01T20:06:21.250Z,101539.06
2022-12-01T20:08:49.921Z,101546.59
2022-12-01T20:11:17.654Z,101540.63
2022-12-01T20:13:47.605Z,101550.00
2022-12-01T20:16:19.924Z,101545.59
2022-12-01T20:18:47.857Z,101553.13
2022-12-01T20:21:25.995Z,101556.41
2022-12-01T20:24:01.532Z,101557.38
2022-12-01T20:26:31.657Z,101549.56
2022-12-01T20:29:02.164Z,101553.13
2022-12-01T20:31:31.868Z,101550.66
2022-12-01T20:34:02.499Z,101554.09
2022-12-01T20:36:30.535Z,101562.22
2022-12-01T20:38:58.745Z,101554.41
2022-12-01T20:41:26.034Z,101555.09
2022-12-01T20:43:53.623Z,101566.19
2022-12-01T20:46:21.496Z,101558.22
2022-12-01T20:48:49.131Z,101554.00
2022-12-01T20:51:16.856Z,101562.19
2022-12-01T20:54:05.598Z,101570.44
2022-12-01T20:56:32.384Z,101566.75
2022-12-01T20:59:00.602Z,101565.91
2022-12-01T21:01:28.268Z,101561.66
2022-12-01T21:03:56.525Z,101563.06
2022-12-01T21:06:24.291Z,101558.81
2022-12-01T21:08:52.434Z,101563.63
2022-12-01T21:11:44.614Z,101560.53
2022-12-01T21:14:23.247Z,101563.34
2022-12-01T21:16:52.463Z,101562.78
2022-12-01T21:19:30.500Z,101556.25
2022-12-01T21:21:58.803Z,101555.81
2022-12-01T21:24:33.573Z,101555.97
2022-12-01T21:27:12.559Z,101560.78
2022-12-01T21:29:43.699Z,101554.53
2022-12-01T21:32:30.220Z,101555.81
2022-12-01T21:35:08.596Z,101560.66
2022-12-01T21:37:36.362Z,101561.38
2022-12-01T21:40:28.725Z,101554.84
2022-12-01T21:43:01.528Z,101557.38
2022-12-01T21:45:32.123Z,101560.63
2022-12-01T21:48:18.299Z,101564.06
2022-12-01T21:50:49.418Z,101562.78
2022-12-01T21:53:20.134Z,101568.31
2022-12-01T21:55:49.182Z,101563.22
2022-12-01T21:58:31.403Z,101560.22
2022-12-01T22:01:00.634Z,101566.31
2022-12-01T22:03:32.482Z,101572.56
2022-12-01T22:06:31.595Z,101566.88
2022-12-01T22:09:14.320Z,101562.91
2022-12-01T22:11:44.950Z,101570.16
2022-12-01T22:14:20.102Z,101566.31
2022-12-01T22:16:52.967Z,101566.75
2022-12-01T22:19:26.365Z,101572.28
2022-12-01T22:22:01.626Z,101569.88
2022-12-01T22:24:42.510Z,101564.78
2022-12-01T22:27:31.475Z,101570.00
2022-12-01T22:30:18.987Z,101567.88
2022-12-01T22:33:04.055Z,101567.59
2022-12-01T22:35:34.568Z,101576.97
2022-12-01T22:38:08.699Z,101572.44
2022-12-01T22:40:58.974Z,101570.16
2022-12-01T22:43:40.445Z,101572.41
2022-12-01T22:46:16.384Z,101572.44
2022-12-01T22:48:49.746Z,101571.84
2022-12-01T22:51:21.972Z,101570.31
2022-12-01T22:53:51.731Z,101572.97
2022-12-01T22:56:40.439Z,101576.94
2022-12-01T22:59:28.140Z,101577.41
2022-12-01T23:01:57.102Z,101570.56
2022-12-01T23:04:31.146Z,101574.00
2022-12-01T23:07:20.379Z,101578.81
2022-12-01T23:09:48.062Z,101577.25
2022-12-01T23:12:26.024Z,101577.53
2022-12-01T23:15:00.243Z,101581.75
2022-12-01T23:17:30.615Z,101578.13
2022-12-01T23:20:20.482Z,101580.38
2022-12-01T23:22:48.167Z,101580.50
2022-12-01T23:25:18.935Z,101580.81
2022-12-01T23:27:48.554Z,101576.97
2022-12-01T23:30:17.280Z,101576.00
2022-12-01T23:32:48.911Z,101573.00
2022-12-01T23:35:18.206Z,101579.53
2022-12-01T23:37:47.718Z,101577.38
2022-12-01T23:40:29.458Z,101577.09
2022-12-01T23:43:29.427Z,101572.69
2022-12-01T23:46:22.673Z,101571.13
2022-12-01T23:48:59.165Z,101568.72
2022-12-01T23:51:33.195Z,101571.56
2022-12-01T23:54:06.491Z,101575.00
2022-12-01T23:56:37.642Z,101572.31
2022-12-01T23:59:10.426Z,101566.91
